createdAt,value
2023-03-31T00:02:37.297Z,6.82
2023-03-31T00:05:25.498Z,12.23
2023-03-31T00:08:14.104Z,10.73
2023-03-31T00:11:04.229Z,9.30
2023-03-31T00:13:52.270Z,8.85
2023-03-31T00:16:40.703Z,8.93
2023-03-31T00:19:33.173Z,8.37
2023-03-31T00:22:22.198Z,7.80
2023-03-31T00:25:11.060Z,10.90
2023-03-31T00:27:59.104Z,8.95
2023-03-31T00:30:47.330Z,9.18
2023-03-31T00:33:35.589Z,9.07
2023-03-31T00:36:28.415Z,8.50
2023-03-31T00:39:19.263Z,9.13
2023-03-31T00:42:08.921Z,8.30
2023-03-31T00:45:28.736Z,8.65
2023-03-31T00:48:20.633Z,7.37
2023-03-31T00:51:09.242Z,9.05
2023-03-31T00:54:04.982Z,5.75
2023-03-31T00:56:58.397Z,6.32
2023-03-31T00:59:50.828Z,8.05
2023-03-31T01:02:41.550Z,9.37
2023-03-31T01:05:33.956Z,8.63
2023-03-31T01:08:26.363Z,9.18
2023-03-31T01:11:19.379Z,8.38
2023-03-31T01:14:07.672Z,8.20
2023-03-31T01:16:55.856Z,10.43
2023-03-31T01:19:58.777Z,7.88
2023-03-31T01:23:11.241Z,8.80
2023-03-31T01:26:38.771Z,8.00
2023-03-31T01:30:00.128Z,9.77
2023-03-31T01:33:22.760Z,6.97
2023-03-31T01:36:37.322Z,11.43
2023-03-31T01:39:58.442Z,10.15
2023-03-31T01:42:53.720Z,10.60
2023-03-31T01:45:54.266Z,11.75
2023-03-31T01:48:51.979Z,7.33
2023-03-31T01:51:49.444Z,6.20
2023-03-31T01:54:41.827Z,9.88
2023-03-31T01:57:35.544Z,12.73
2023-03-31T02:00:33.374Z,9.25
2023-03-31T02:03:25.233Z,12.27
2023-03-31T02:06:18.745Z,13.07
2023-03-31T02:09:13.194Z,9.45
2023-03-31T02:12:05.096Z,13.77
2023-03-31T02:14:55.900Z,9.23
2023-03-31T02:17:51.379Z,11.13
2023-03-31T02:20:43.028Z,10.40
2023-03-31T02:23:33.110Z,8.48
2023-03-31T02:26:25.444Z,10.45
2023-03-31T02:29:13.687Z,9.43
2023-03-31T02:32:11.796Z,12.23
2023-03-31T02:35:01.925Z,8.07
2023-03-31T02:37:50.678Z,9.25
2023-03-31T02:40:38.768Z,11.85
2023-03-31T02:43:26.990Z,9.43
2023-03-31T02:46:15.145Z,10.53
2023-03-31T02:49:07.075Z,11.38
2023-03-31T02:52:18.073Z,12.73
2023-03-31T02:55:16.390Z,8.50
2023-03-31T02:58:30.582Z,8.80
2023-03-31T03:01:36.809Z,9.50
2023-03-31T03:04:39.831Z,10.40
2023-03-31T03:07:38.317Z,6.55
2023-03-31T03:10:32.895Z,7.50
2023-03-31T03:13:28.120Z,6.30
2023-03-31T03:16:24.501Z,6.70
2023-03-31T03:19:20.986Z,7.78
2023-03-31T03:22:09.422Z,6.55
2023-03-31T03:24:58.849Z,4.55
2023-03-31T03:27:47.751Z,4.95
2023-03-31T03:30:41.934Z,3.77
2023-03-31T03:33:30.059Z,4.07
2023-03-31T03:36:18.949Z,3.92
2023-03-31T03:39:08.787Z,6.65
2023-03-31T03:41:58.297Z,6.30
2023-03-31T03:44:46.322Z,4.87
2023-03-31T03:47:36.117Z,5.30
2023-03-31T03:50:24.217Z,5.65
2023-03-31T03:53:12.304Z,5.70
2023-03-31T03:56:01.513Z,6.88
2023-03-31T03:58:51.317Z,8.90
2023-03-31T04:01:39.683Z,8.43
2023-03-31T04:04:27.761Z,9.68
2023-03-31T04:07:16.323Z,13.00
2023-03-31T04:10:04.382Z,10.13
2023-03-31T04:12:52.441Z,9.77
2023-03-31T04:15:42.023Z,8.65
2023-03-31T04:18:30.197Z,12.65
2023-03-31T04:21:22.911Z,13.90
2023-03-31T04:24:12.742Z,13.27
2023-03-31T04:27:02.754Z,11.50
2023-03-31T04:29:54.805Z,9.00
2023-03-31T04:32:44.355Z,12.13
2023-03-31T04:35:49.721Z,15.05
2023-03-31T04:38:37.922Z,9.20
2023-03-31T04:41:27.529Z,10.60
2023-03-31T04:44:15.763Z,7.88
2023-03-31T04:47:03.787Z,9.95
2023-03-31T04:49:53.107Z,9.88
2023-03-31T04:52:41.142Z,6.63
2023-03-31T04:55:30.022Z,9.43
2023-03-31T04:58:18.530Z,6.65
2023-03-31T05:01:07.491Z,8.40
2023-03-31T05:03:55.801Z,8.27
2023-03-31T05:06:45.187Z,5.90
2023-03-31T05:09:34.712Z,4.87
2023-03-31T05:12:23.118Z,5.18
2023-03-31T05:15:11.942Z,6.15
2023-03-31T05:18:00.258Z,4.20
2023-03-31T05:20:48.307Z,5.35
2023-03-31T05:23:37.745Z,5.10
2023-03-31T05:26:26.603Z,4.07
2023-03-31T05:29:16.580Z,3.35
2023-03-31T05:32:04.907Z,5.15
2023-03-31T05:34:56.999Z,6.45
2023-03-31T05:37:45.106Z,4.20
2023-03-31T05:40:52.382Z,5.30
2023-03-31T05:43:40.994Z,4.82
2023-03-31T05:46:29.308Z,3.20
2023-03-31T05:49:17.473Z,5.40
2023-03-31T05:52:06.021Z,4.93
2023-03-31T05:54:54.337Z,4.07
2023-03-31T05:57:43.699Z,3.28
2023-03-31T06:00:32.692Z,7.38
2023-03-31T06:03:20.791Z,4.50
2023-03-31T06:06:09.919Z,3.93
2023-03-31T06:08:57.942Z,5.25
2023-03-31T06:11:46.108Z,5.43
2023-03-31T06:14:35.778Z,3.25
2023-03-31T06:17:23.811Z,5.50
2023-03-31T06:20:24.622Z,4.33
2023-03-31T06:23:15.738Z,5.43
2023-03-31T06:26:07.067Z,4.07
2023-03-31T06:28:55.602Z,5.80
2023-03-31T06:31:45.057Z,6.63
2023-03-31T06:34:33.140Z,4.40
2023-03-31T06:37:21.212Z,6.30
2023-03-31T06:40:11.020Z,6.38
2023-03-31T06:42:59.642Z,4.32
2023-03-31T06:45:47.789Z,7.95
2023-03-31T06:48:37.265Z,5.67
2023-03-31T06:51:25.479Z,7.10
2023-03-31T06:54:13.520Z,5.85
2023-03-31T06:57:01.541Z,6.75
2023-03-31T06:59:49.809Z,6.63
2023-03-31T07:02:38.195Z,6.30
2023-03-31T07:05:28.924Z,11.20
2023-03-31T07:08:20.344Z,8.25
2023-03-31T07:11:11.657Z,7.40
2023-03-31T07:13:59.717Z,5.43
2023-03-31T07:16:47.862Z,8.10
2023-03-31T07:19:37.924Z,10.60
2023-03-31T07:22:27.376Z,10.55
2023-03-31T07:25:17.716Z,9.43
2023-03-31T07:28:06.875Z,7.43
2023-03-31T07:30:54.820Z,8.30
2023-03-31T07:33:43.297Z,10.15
2023-03-31T07:36:32.238Z,8.40
2023-03-31T07:39:21.765Z,12.95
2023-03-31T07:42:09.846Z,9.77
2023-03-31T07:44:58.074Z,8.63
2023-03-31T07:47:47.356Z,9.38
2023-03-31T07:50:35.589Z,12.40
2023-03-31T07:53:23.783Z,11.73
2023-03-31T07:56:13.812Z,10.15
2023-03-31T07:59:05.006Z,10.07
2023-03-31T08:01:53.216Z,7.88
2023-03-31T08:04:42.217Z,9.25
2023-03-31T08:07:30.977Z,6.38
2023-03-31T08:10:21.329Z,13.57
2023-03-31T08:13:11.406Z,12.70
2023-03-31T08:15:59.436Z,11.07
2023-03-31T08:18:47.798Z,10.50
2023-03-31T08:21:38.218Z,9.20
2023-03-31T08:24:26.260Z,11.77
2023-03-31T08:27:14.276Z,8.93
2023-03-31T08:30:04.693Z,9.95
2023-03-31T08:32:52.864Z,9.40
2023-03-31T08:35:41.063Z,11.85
2023-03-31T08:38:29.409Z,11.18
2023-03-31T08:41:33.162Z,15.83
2023-03-31T08:44:27.495Z,10.20
2023-03-31T08:47:20.952Z,11.48
2023-03-31T08:50:16.727Z,11.95
2023-03-31T08:53:07.375Z,8.13
2023-03-31T08:55:57.717Z,9.43
2023-03-31T08:58:47.700Z,15.93
2023-03-31T09:01:54.575Z,11.30
2023-03-31T09:05:05.829Z,10.80
2023-03-31T09:08:05.942Z,11.57
2023-03-31T09:10:57.410Z,8.10
2023-03-31T09:13:59.587Z,10.07
2023-03-31T09:16:55.923Z,9.50
2023-03-31T09:19:51.488Z,10.82
2023-03-31T09:22:44.987Z,10.27
2023-03-31T09:25:37.261Z,7.93
2023-03-31T09:28:38.399Z,9.20
2023-03-31T09:31:26.948Z,10.73
2023-03-31T09:34:18.665Z,14.75
2023-03-31T09:37:07.075Z,11.70
2023-03-31T09:39:57.390Z,8.63
2023-03-31T09:42:46.640Z,9.82
2023-03-31T09:45:35.761Z,12.55
2023-03-31T09:48:28.448Z,11.02
2023-03-31T09:51:21.954Z,13.35
2023-03-31T09:54:15.561Z,16.03
2023-03-31T09:57:15.770Z,13.88
2023-03-31T10:00:14.321Z,9.88
2023-03-31T10:03:07.593Z,11.75
2023-03-31T10:05:58.907Z,10.85
2023-03-31T10:08:51.098Z,8.17
2023-03-31T10:11:40.390Z,11.48
2023-03-31T10:14:39.435Z,11.90
2023-03-31T10:17:31.297Z,16.00
2023-03-31T10:20:35.646Z,9.40
2023-03-31T10:23:28.061Z,11.40
2023-03-31T10:26:19.746Z,7.05
2023-03-31T10:29:14.963Z,11.75
2023-03-31T10:32:16.682Z,9.50
2023-03-31T10:35:07.726Z,8.27
2023-03-31T10:37:58.628Z,6.23
2023-03-31T10:40:53.337Z,10.43
2023-03-31T10:43:43.833Z,5.75
2023-03-31T10:46:44.078Z,8.32
2023-03-31T10:49:39.395Z,5.90
2023-03-31T10:52:28.230Z,7.93
2023-03-31T10:55:28.108Z,9.90
2023-03-31T10:58:32.182Z,7.85
2023-03-31T11:01:31.503Z,8.55
2023-03-31T11:04:46.101Z,9.43
2023-03-31T11:07:49.371Z,11.67
2023-03-31T11:10:48.603Z,9.15
2023-03-31T11:13:43.866Z,9.35
2023-03-31T11:16:40.603Z,8.30
2023-03-31T11:19:43.158Z,7.90
2023-03-31T11:22:38.911Z,8.20
2023-03-31T11:25:36.326Z,6.47
2023-03-31T11:28:43.631Z,5.35
2023-03-31T11:31:44.648Z,7.85
2023-03-31T11:35:06.101Z,8.52
2023-03-31T11:38:11.539Z,7.37
2023-03-31T11:41:03.663Z,7.15
2023-03-31T11:44:03.545Z,5.63
2023-03-31T11:46:55.927Z,4.65
2023-03-31T11:49:48.754Z,5.47
2023-03-31T11:52:42.899Z,4.43
2023-03-31T11:55:33.810Z,4.30
2023-03-31T11:58:28.841Z,6.25
2023-03-31T12:01:26.178Z,5.22
2023-03-31T12:04:24.977Z,8.30
2023-03-31T12:07:24.953Z,6.60
2023-03-31T12:10:21.448Z,4.25
2023-03-31T12:13:34.274Z,6.82
2023-03-31T12:16:24.978Z,6.90
2023-03-31T12:19:19.518Z,5.80
2023-03-31T12:22:13.796Z,9.53
2023-03-31T12:25:02.076Z,5.82
2023-03-31T12:27:51.625Z,9.60
2023-03-31T12:30:44.204Z,7.85
2023-03-31T12:33:36.822Z,6.93
2023-03-31T12:36:42.595Z,7.97
2023-03-31T12:39:41.843Z,6.47
2023-03-31T12:42:52.400Z,6.90
2023-03-31T12:45:49.643Z,10.88
2023-03-31T12:48:57.717Z,9.18
2023-03-31T12:52:06.979Z,9.43
2023-03-31T12:55:25.060Z,6.82
2023-03-31T12:58:45.054Z,5.88
2023-03-31T13:01:34.530Z,6.47
2023-03-31T13:04:27.924Z,7.32
2023-03-31T13:07:38.481Z,7.00
2023-03-31T13:10:32.278Z,4.80
2023-03-31T13:13:20.617Z,6.82
2023-03-31T13:16:09.032Z,7.00
2023-03-31T13:18:59.507Z,5.18
2023-03-31T13:21:55.006Z,5.87
2023-03-31T13:24:43.171Z,6.18
2023-03-31T13:27:34.279Z,6.88
2023-03-31T13:30:48.027Z,6.38
2023-03-31T13:33:41.245Z,7.93
2023-03-31T13:37:00.785Z,5.00
2023-03-31T13:40:16.148Z,5.03
2023-03-31T13:43:20.447Z,5.63
2023-03-31T13:46:33.898Z,6.00
2023-03-31T13:53:24.236Z,7.40
2023-03-31T13:56:46.196Z,9.38
2023-03-31T14:00:12.471Z,7.45
2023-03-31T14:03:18.529Z,8.15
2023-03-31T14:06:12.645Z,9.93
2023-03-31T14:09:06.729Z,7.50
2023-03-31T14:11:54.801Z,6.80
2023-03-31T14:14:43.550Z,7.15
2023-03-31T14:17:34.963Z,7.88
2023-03-31T14:20:39.044Z,6.35
2023-03-31T14:23:38.487Z,7.43
2023-03-31T14:26:46.696Z,5.97
2023-03-31T14:29:43.370Z,7.75
2023-03-31T14:32:40.382Z,16.60
2023-03-31T14:35:38.685Z,7.95
2023-03-31T14:38:30.646Z,8.63
2023-03-31T14:41:29.577Z,8.60
2023-03-31T14:44:20.012Z,9.25
2023-03-31T14:47:16.288Z,12.02
2023-03-31T14:50:13.914Z,8.10
2023-03-31T14:53:04.998Z,8.60
2023-03-31T14:56:01.602Z,6.53
2023-03-31T14:58:54.323Z,8.77
2023-03-31T15:01:46.421Z,7.55
2023-03-31T15:04:44.892Z,8.73
2023-03-31T15:07:36.160Z,7.87
2023-03-31T15:10:24.317Z,8.25
2023-03-31T15:13:16.874Z,7.07
2023-03-31T15:16:33.546Z,5.90
2023-03-31T15:19:25.751Z,7.45
2023-03-31T15:22:18.763Z,9.83
2023-03-31T15:25:09.909Z,8.23
2023-03-31T15:28:03.276Z,8.18
2023-03-31T15:31:03.256Z,10.10
2023-03-31T15:33:58.293Z,7.65
2023-03-31T15:36:55.438Z,6.43
2023-03-31T15:39:49.713Z,7.68
2023-03-31T15:42:41.237Z,7.82
2023-03-31T15:45:56.469Z,6.57
2023-03-31T15:48:51.808Z,6.22
2023-03-31T15:51:42.305Z,6.10
2023-03-31T15:54:36.988Z,4.25
2023-03-31T15:57:38.312Z,8.32
2023-03-31T16:00:47.402Z,8.48
2023-03-31T16:03:38.564Z,10.18
2023-03-31T16:06:35.782Z,5.63
2023-03-31T16:09:28.430Z,9.25
2023-03-31T16:12:24.086Z,6.65
2023-03-31T16:15:16.157Z,8.57
2023-03-31T16:18:09.791Z,6.80
2023-03-31T16:21:02.482Z,8.73
2023-03-31T16:23:54.701Z,8.93
2023-03-31T16:26:43.130Z,7.10
2023-03-31T16:29:33.491Z,6.80
2023-03-31T16:32:21.620Z,9.18
2023-03-31T16:35:10.168Z,10.97
2023-03-31T16:37:58.236Z,9.30
2023-03-31T16:40:48.294Z,7.75
2023-03-31T16:43:37.086Z,7.20
2023-03-31T16:46:26.648Z,7.28
2023-03-31T16:49:14.692Z,8.07
2023-03-31T16:52:02.859Z,7.53
2023-03-31T16:54:50.928Z,6.70
2023-03-31T16:57:38.953Z,5.65
2023-03-31T17:00:32.282Z,5.75
2023-03-31T17:03:22.359Z,7.10
2023-03-31T17:06:11.973Z,4.63
2023-03-31T17:09:01.566Z,11.95
2023-03-31T17:11:50.051Z,8.88
2023-03-31T17:14:38.150Z,12.65
2023-03-31T17:17:26.355Z,11.33
2023-03-31T17:20:15.807Z,7.70
2023-03-31T17:23:04.364Z,14.25
2023-03-31T17:25:57.400Z,11.55
2023-03-31T17:28:46.154Z,16.90
2023-03-31T17:31:34.290Z,13.87
2023-03-31T17:34:22.486Z,14.10
2023-03-31T17:37:12.428Z,12.38
2023-03-31T17:40:00.796Z,15.18
2023-03-31T17:42:50.144Z,14.60
2023-03-31T17:45:38.271Z,12.10
2023-03-31T17:48:26.592Z,14.60
2023-03-31T17:51:16.958Z,12.18
2023-03-31T17:54:06.882Z,17.73
2023-03-31T17:56:54.989Z,17.63
2023-03-31T17:59:45.056Z,15.67
2023-03-31T18:02:33.347Z,15.93
2023-03-31T18:05:21.994Z,14.40
2023-03-31T18:08:10.509Z,16.35
2023-03-31T18:11:00.198Z,10.63
2023-03-31T18:13:48.303Z,20.13
2023-03-31T18:16:37.148Z,16.67
2023-03-31T18:19:25.348Z,15.98
2023-03-31T18:22:13.366Z,15.30
2023-03-31T18:25:04.843Z,13.20
2023-03-31T18:27:54.258Z,13.67
2023-03-31T18:30:43.407Z,13.25
2023-03-31T18:33:31.936Z,11.60
2023-03-31T18:36:21.314Z,9.45
2023-03-31T18:39:09.450Z,13.70
2023-03-31T18:41:58.349Z,14.80
2023-03-31T18:44:47.856Z,13.38
2023-03-31T18:48:08.844Z,14.70
2023-03-31T18:50:57.534Z,14.20
2023-03-31T18:53:45.941Z,21.63
2023-03-31T18:56:34.071Z,17.90
2023-03-31T18:59:22.778Z,12.45
2023-03-31T19:02:14.426Z,14.35
2023-03-31T19:05:02.453Z,16.58
2023-03-31T19:07:51.241Z,16.70
2023-03-31T19:10:39.316Z,22.20
2023-03-31T19:13:27.506Z,19.98
2023-03-31T19:16:15.651Z,15.23
2023-03-31T19:19:05.088Z,22.10
2023-03-31T19:21:54.302Z,15.85
2023-03-31T19:24:42.413Z,12.33
2023-03-31T19:27:30.543Z,18.20
2023-03-31T19:30:20.954Z,15.80
2023-03-31T19:33:09.111Z,14.85
2023-03-31T19:35:59.142Z,13.93
2023-03-31T19:38:47.256Z,9.87
2023-03-31T19:41:35.892Z,13.30
2023-03-31T19:44:24.033Z,20.70
2023-03-31T19:47:12.553Z,16.38
2023-03-31T19:50:00.671Z,21.10
2023-03-31T19:52:50.618Z,16.67
2023-03-31T19:55:40.075Z,19.95
2023-03-31T19:58:28.877Z,20.77
2023-03-31T20:01:18.702Z,22.35
2023-03-31T20:04:07.009Z,21.63
2023-03-31T20:06:55.605Z,18.17
2023-03-31T20:09:46.023Z,25.63
2023-03-31T20:12:34.213Z,20.50
2023-03-31T20:15:25.025Z,21.90
2023-03-31T20:18:13.662Z,18.95
2023-03-31T20:21:07.549Z,22.23
2023-03-31T20:23:57.225Z,22.95
2023-03-31T20:27:20.038Z,14.02
2023-03-31T20:30:10.766Z,22.25
2023-03-31T20:33:00.014Z,17.80
2023-03-31T20:35:48.365Z,24.50
2023-03-31T20:38:39.942Z,27.08
2023-03-31T20:41:31.050Z,26.95
2023-03-31T20:44:21.354Z,17.40
2023-03-31T20:47:09.811Z,14.88
2023-03-31T20:49:59.009Z,20.27
2023-03-31T20:52:47.680Z,16.13
2023-03-31T20:55:36.490Z,17.25
2023-03-31T20:58:24.628Z,19.63
2023-03-31T21:01:15.057Z,18.60
2023-03-31T21:04:04.364Z,19.57
2023-03-31T21:06:53.792Z,17.10
2023-03-31T21:09:42.198Z,20.13
2023-03-31T21:12:31.189Z,16.80
2023-03-31T21:15:21.982Z,17.58
2023-03-31T21:18:11.438Z,18.53
2023-03-31T21:21:01.447Z,19.55
2023-03-31T21:23:49.985Z,17.20
2023-03-31T21:26:40.048Z,16.40
2023-03-31T21:29:32.205Z,21.73
2023-03-31T21:32:20.464Z,15.93
2023-03-31T21:35:10.660Z,20.08
2023-03-31T21:37:58.724Z,20.75
2023-03-31T21:40:47.691Z,14.45
2023-03-31T21:43:36.580Z,15.93
2023-03-31T21:46:27.449Z,18.07
2023-03-31T21:49:16.754Z,15.15
2023-03-31T21:52:07.014Z,14.60
2023-03-31T21:54:55.317Z,15.75
2023-03-31T21:57:43.309Z,19.52
2023-03-31T22:00:32.125Z,19.10
2023-03-31T22:03:27.059Z,25.92
2023-03-31T22:06:16.319Z,29.48
2023-03-31T22:09:06.937Z,33.05
2023-03-31T22:11:55.252Z,30.40
2023-03-31T22:14:43.847Z,36.83
2023-03-31T22:17:32.112Z,34.67
2023-03-31T22:20:21.940Z,27.02
2023-03-31T22:23:13.261Z,29.27
2023-03-31T22:26:02.757Z,33.38
2023-03-31T22:28:51.372Z,31.97
2023-03-31T22:31:39.990Z,30.63
2023-03-31T22:34:28.165Z,38.30
2023-03-31T22:37:16.550Z,31.55
2023-03-31T22:40:05.705Z,40.22
2023-03-31T22:43:07.407Z,31.53
2023-03-31T22:46:00.361Z,26.75
2023-03-31T22:48:52.290Z,38.85
2023-03-31T22:51:42.706Z,39.20
2023-03-31T22:54:31.616Z,37.38
2023-03-31T22:57:19.912Z,35.10
2023-03-31T23:00:13.588Z,37.88
2023-03-31T23:03:02.038Z,35.33
2023-03-31T23:05:50.647Z,32.80
2023-03-31T23:08:39.569Z,33.75
2023-03-31T23:11:27.889Z,38.73
2023-03-31T23:14:16.035Z,37.05
2023-03-31T23:17:05.696Z,36.42
2023-03-31T23:19:53.899Z,35.20
2023-03-31T23:22:42.591Z,39.55
2023-03-31T23:25:31.160Z,37.13
2023-03-31T23:28:19.413Z,35.72
2023-03-31T23:31:08.061Z,42.30
2023-03-31T23:33:58.327Z,32.83
2023-03-31T23:36:46.685Z,44.67
2023-03-31T23:39:42.747Z,40.40
2023-03-31T23:42:45.228Z,40.33
2023-03-31T23:45:40.139Z,34.25
2023-03-31T23:48:29.489Z,35.90
2023-03-31T23:51:33.494Z,38.90
2023-03-31T23:54:21.564Z,33.20
2023-03-31T23:57:16.670Z,43.58
